createdAt,value
2022-08-24T00:00:21.015Z,17.74
2022-08-24T00:02:50.270Z,17.78
2022-08-24T00:05:21.543Z,17.77
2022-08-24T00:07:50.273Z,17.80
2022-08-24T00:10:19.545Z,17.82
2022-08-24T00:12:48.123Z,17.83
2022-08-24T00:15:16.533Z,17.80
2022-08-24T00:17:45.057Z,17.81
2022-08-24T00:20:13.893Z,17.81
2022-08-24T00:22:41.644Z,17.82
2022-08-24T00:25:11.791Z,17.81
2022-08-24T00:27:41.183Z,17.80
2022-08-24T00:30:15.545Z,17.76
2022-08-24T00:32:43.963Z,17.76
2022-08-24T00:35:12.876Z,17.76
2022-08-24T00:37:41.154Z,17.72
2022-08-24T00:40:23.313Z,17.70
2022-08-24T00:42:51.664Z,17.68
2022-08-24T00:45:20.265Z,17.69
2022-08-24T00:47:55.700Z,17.65
2022-08-24T00:50:27.573Z,17.66
2022-08-24T00:53:00.153Z,17.64
2022-08-24T00:55:39.273Z,17.62
2022-08-24T00:58:17.038Z,17.63
2022-08-24T01:00:49.669Z,17.62
2022-08-24T01:03:18.450Z,17.59
2022-08-24T01:05:47.169Z,17.57
2022-08-24T01:08:17.133Z,17.55
2022-08-24T01:10:49.013Z,17.58
2022-08-24T01:13:17.276Z,17.59
2022-08-24T01:15:47.879Z,17.59
2022-08-24T01:18:37.793Z,17.58
2022-08-24T01:21:25.053Z,17.57
2022-08-24T01:24:00.229Z,17.58
2022-08-24T01:26:37.761Z,17.56
2022-08-24T01:29:12.622Z,17.54
2022-08-24T01:31:40.492Z,17.56
2022-08-24T01:34:09.138Z,17.53
2022-08-24T01:36:39.891Z,17.51
2022-08-24T01:39:30.277Z,17.51
2022-08-24T01:41:59.113Z,17.54
2022-08-24T01:44:29.855Z,17.52
2022-08-24T01:46:58.424Z,17.51
2022-08-24T01:49:32.561Z,17.54
2022-08-24T01:52:01.088Z,17.54
2022-08-24T01:54:28.912Z,17.53
2022-08-24T01:56:57.122Z,17.54
2022-08-24T01:59:25.612Z,17.52
2022-08-24T02:01:58.453Z,17.52
2022-08-24T02:04:26.131Z,17.53
2022-08-24T02:06:55.596Z,17.54
2022-08-24T02:09:23.232Z,17.52
2022-08-24T02:11:56.189Z,17.50
2022-08-24T02:14:24.358Z,17.50
2022-08-24T02:16:57.540Z,17.51
2022-08-24T02:19:27.432Z,17.49
2022-08-24T02:21:55.141Z,17.49
2022-08-24T02:24:22.845Z,17.46
2022-08-24T02:26:51.072Z,17.47
2022-08-24T02:29:18.830Z,17.46
2022-08-24T02:31:46.492Z,17.49
2022-08-24T02:34:14.228Z,17.47
2022-08-24T02:36:41.790Z,17.47
2022-08-24T02:39:09.872Z,17.45
2022-08-24T02:41:38.560Z,17.44
2022-08-24T02:44:07.432Z,17.45
2022-08-24T02:46:36.606Z,17.47
2022-08-24T02:49:11.704Z,17.47
2022-08-24T02:51:45.586Z,17.49
2022-08-24T02:54:22.014Z,17.50
2022-08-24T02:56:52.240Z,17.48
2022-08-24T02:59:21.338Z,17.50
2022-08-24T03:01:50.744Z,17.52
2022-08-24T03:04:20.871Z,17.51
2022-08-24T03:06:48.690Z,17.53
2022-08-24T03:09:17.951Z,17.51
2022-08-24T03:11:45.788Z,17.50
2022-08-24T03:14:14.679Z,17.49
2022-08-24T03:16:43.131Z,17.46
2022-08-24T03:19:12.227Z,17.42
2022-08-24T03:21:41.591Z,17.37
2022-08-24T03:24:09.924Z,17.35
2022-08-24T03:26:39.113Z,17.34
2022-08-24T03:29:12.801Z,17.34
2022-08-24T03:31:40.441Z,17.33
2022-08-24T03:34:08.080Z,17.34
2022-08-24T03:36:35.649Z,17.33
2022-08-24T03:39:03.531Z,17.33
2022-08-24T03:41:31.011Z,17.31
2022-08-24T03:44:03.221Z,17.28
2022-08-24T03:46:35.598Z,17.25
2022-08-24T03:49:08.768Z,17.25
2022-08-24T03:51:38.041Z,17.25
2022-08-24T03:54:09.631Z,17.27
2022-08-24T03:56:38.441Z,17.28
2022-08-24T03:59:07.921Z,17.30
2022-08-24T04:01:40.477Z,17.32
2022-08-24T04:04:09.710Z,17.34
2022-08-24T04:06:38.967Z,17.35
2022-08-24T04:09:07.924Z,17.36
2022-08-24T04:11:41.522Z,17.36
2022-08-24T04:14:23.581Z,17.38
2022-08-24T04:17:01.171Z,17.40
2022-08-24T04:19:35.122Z,17.41
2022-08-24T04:22:02.871Z,17.42
2022-08-24T04:24:32.129Z,17.40
2022-08-24T04:27:00.372Z,17.40
2022-08-24T04:29:28.004Z,17.41
2022-08-24T04:31:55.985Z,17.45
2022-08-24T04:34:24.306Z,17.45
2022-08-24T04:36:52.151Z,17.47
2022-08-24T04:39:19.680Z,17.50
2022-08-24T04:42:07.691Z,17.63
2022-08-24T04:44:39.977Z,17.82
2022-08-24T04:47:08.960Z,17.95
2022-08-24T04:49:39.282Z,18.07
2022-08-24T04:52:08.716Z,18.29
2022-08-24T04:54:36.751Z,18.44
2022-08-24T04:57:13.574Z,18.47
2022-08-24T04:59:44.960Z,18.51
2022-08-24T05:02:12.788Z,18.54
2022-08-24T05:04:40.901Z,18.61
2022-08-24T05:07:09.010Z,18.83
2022-08-24T05:09:41.156Z,19.05
2022-08-24T05:12:10.105Z,19.31
2022-08-24T05:14:40.660Z,19.52
2022-08-24T05:17:09.286Z,19.85
2022-08-24T05:19:38.211Z,20.21
2022-08-24T05:22:05.792Z,20.55
2022-08-24T05:24:33.869Z,20.99
2022-08-24T05:27:01.505Z,21.16
2022-08-24T05:29:34.069Z,21.44
2022-08-24T05:32:02.247Z,21.21
2022-08-24T05:34:30.559Z,20.82
2022-08-24T05:36:58.189Z,20.90
2022-08-24T05:39:36.108Z,20.75
2022-08-24T05:42:08.560Z,20.49
2022-08-24T05:44:42.569Z,20.39
2022-08-24T05:47:10.580Z,20.23
2022-08-24T05:49:41.344Z,20.00
2022-08-24T05:52:10.769Z,19.70
2022-08-24T05:54:38.309Z,19.54
2022-08-24T05:57:06.561Z,19.33
2022-08-24T05:59:54.754Z,19.07
2022-08-24T06:02:23.925Z,18.95
2022-08-24T06:04:51.868Z,18.75
2022-08-24T06:07:20.548Z,18.86
2022-08-24T06:09:54.329Z,18.99
2022-08-24T06:12:22.056Z,19.11
2022-08-24T06:14:49.599Z,19.31
2022-08-24T06:17:22.735Z,19.58
2022-08-24T06:19:52.089Z,19.72
2022-08-24T06:22:19.647Z,19.84
2022-08-24T06:25:05.879Z,19.92
2022-08-24T06:27:34.250Z,20.04
2022-08-24T06:30:06.413Z,19.97
2022-08-24T06:32:54.157Z,19.99
2022-08-24T06:35:29.434Z,20.14
2022-08-24T06:37:57.987Z,20.19
2022-08-24T06:40:26.578Z,20.21
2022-08-24T06:42:54.990Z,20.16
2022-08-24T06:46:01.370Z,20.20
2022-08-24T06:48:34.638Z,20.14
2022-08-24T06:51:07.919Z,20.12
2022-08-24T06:53:36.085Z,20.11
2022-08-24T06:56:04.814Z,20.12
2022-08-24T06:58:35.948Z,20.00
2022-08-24T07:01:12.720Z,19.67
2022-08-24T07:03:42.038Z,19.22
2022-08-24T07:06:21.500Z,18.82
2022-08-24T07:08:49.639Z,18.65
2022-08-24T07:11:22.079Z,18.61
2022-08-24T07:13:50.647Z,18.50
2022-08-24T07:16:20.763Z,18.52
2022-08-24T07:18:52.639Z,18.41
2022-08-24T07:21:22.978Z,18.47
2022-08-24T07:23:57.074Z,18.56
2022-08-24T07:26:27.727Z,18.64
2022-08-24T07:29:05.648Z,18.82
2022-08-24T07:31:43.905Z,18.79
2022-08-24T07:34:29.679Z,18.79
2022-08-24T07:36:57.239Z,18.81
2022-08-24T07:39:24.842Z,18.90
2022-08-24T07:44:40.346Z,19.08
2022-08-24T07:47:34.290Z,19.32
2022-08-24T07:49:56.527Z,19.56
2022-08-24T07:52:24.598Z,19.70
2022-08-24T07:54:52.187Z,19.78
2022-08-24T07:57:20.325Z,19.83
2022-08-24T07:59:47.959Z,19.89
2022-08-24T08:02:15.652Z,19.94
2022-08-24T08:04:48.489Z,19.96
2022-08-24T08:07:17.702Z,20.03
2022-08-24T08:09:49.860Z,19.94
2022-08-24T08:12:19.506Z,19.96
2022-08-24T08:14:55.734Z,19.77
2022-08-24T08:17:23.954Z,19.73
2022-08-24T08:19:51.456Z,19.76
2022-08-24T08:22:37.547Z,19.79
2022-08-24T08:25:23.846Z,19.82
2022-08-24T08:27:51.914Z,19.93
2022-08-24T08:30:19.716Z,20.02
2022-08-24T08:32:47.327Z,20.05
2022-08-24T08:35:15.509Z,20.16
2022-08-24T08:37:43.831Z,20.25
2022-08-24T08:40:28.616Z,20.47
2022-08-24T08:43:09.023Z,20.53
2022-08-24T08:46:07.302Z,20.83
2022-08-24T08:49:23.783Z,21.24
2022-08-24T08:52:27.442Z,21.50
2022-08-24T08:55:29.393Z,21.72
2022-08-24T08:58:00.514Z,21.94
2022-08-24T09:01:09.724Z,21.72
2022-08-24T09:04:34.578Z,21.90
2022-08-24T09:07:31.556Z,21.51
2022-08-24T09:10:43.671Z,21.65
2022-08-24T09:13:27.878Z,21.75
2022-08-24T09:16:01.388Z,21.28
2022-08-24T09:18:55.817Z,21.19
2022-08-24T09:21:41.445Z,21.33
2022-08-24T09:24:45.385Z,21.57
2022-08-24T09:27:32.798Z,21.91
2022-08-24T09:30:18.540Z,22.19
2022-08-24T09:33:09.307Z,22.14
2022-08-24T09:36:05.862Z,22.22
2022-08-24T09:38:59.463Z,22.40
2022-08-24T09:41:36.296Z,22.32
2022-08-24T09:44:10.077Z,22.00
2022-08-24T09:46:52.426Z,21.81
2022-08-24T09:49:54.803Z,21.61
2022-08-24T09:52:37.502Z,21.71
2022-08-24T09:55:46.792Z,21.68
2022-08-24T09:58:42.036Z,21.34
2022-08-24T10:01:31.523Z,21.27
2022-08-24T10:04:11.376Z,21.53
2022-08-24T10:06:57.482Z,21.71
2022-08-24T10:10:04.886Z,21.61
2022-08-24T10:13:11.157Z,21.38
2022-08-24T10:16:17.085Z,21.65
2022-08-24T10:19:00.965Z,21.74
2022-08-24T10:22:01.685Z,22.01
2022-08-24T10:24:29.860Z,22.31
2022-08-24T10:27:08.824Z,22.58
2022-08-24T10:29:53.662Z,22.39
2022-08-24T10:33:12.306Z,22.44
2022-08-24T10:36:16.387Z,22.36
2022-08-24T10:39:09.695Z,22.48
2022-08-24T10:42:34.467Z,22.24
2022-08-24T10:45:32.786Z,22.55
2022-08-24T10:48:33.398Z,22.70
2022-08-24T10:51:11.075Z,22.87
2022-08-24T10:53:39.169Z,22.62
2022-08-24T10:56:11.520Z,22.46
2022-08-24T10:58:48.091Z,22.63
2022-08-24T11:01:24.264Z,22.61
2022-08-24T11:04:06.876Z,22.30
2022-08-24T11:06:44.485Z,22.02
2022-08-24T11:09:19.748Z,21.99
2022-08-24T11:11:50.102Z,21.82
2022-08-24T11:14:30.510Z,21.95
2022-08-24T11:17:35.065Z,22.39
2022-08-24T11:20:03.147Z,22.45
2022-08-24T11:22:41.902Z,23.01
2022-08-24T11:25:21.833Z,23.38
2022-08-24T11:27:57.957Z,23.87
2022-08-24T11:30:29.815Z,23.86
2022-08-24T11:33:03.215Z,24.27
2022-08-24T11:35:33.650Z,24.04
2022-08-24T11:38:22.481Z,23.68
2022-08-24T11:41:08.104Z,23.84
2022-08-24T11:44:02.197Z,23.59
2022-08-24T11:47:00.293Z,23.18
2022-08-24T11:49:53.024Z,22.80
2022-08-24T11:53:04.236Z,22.82
2022-08-24T11:56:01.309Z,23.11
2022-08-24T11:58:47.540Z,23.51
2022-08-24T12:01:23.800Z,23.72
2022-08-24T12:04:38.504Z,24.21
2022-08-24T12:07:17.395Z,24.80
2022-08-24T12:10:03.648Z,24.80
2022-08-24T12:13:03.697Z,24.55
2022-08-24T12:15:56.849Z,24.35
2022-08-24T12:18:28.424Z,24.47
2022-08-24T12:20:57.244Z,24.64
2022-08-24T12:23:33.510Z,24.32
2022-08-24T12:26:12.637Z,24.26
2022-08-24T12:29:10.084Z,24.53
2022-08-24T12:31:46.243Z,24.13
2022-08-24T12:34:23.064Z,24.02
2022-08-24T12:36:53.424Z,23.99
2022-08-24T12:39:28.993Z,23.98
2022-08-24T12:42:07.970Z,24.00
2022-08-24T12:44:43.662Z,24.20
2022-08-24T12:47:13.490Z,24.42
2022-08-24T12:49:53.394Z,24.44
2022-08-24T12:52:38.999Z,24.67
2022-08-24T12:55:41.083Z,24.32
2022-08-24T12:58:34.479Z,24.53
2022-08-24T13:01:07.389Z,24.83
2022-08-24T13:03:37.983Z,24.99
2022-08-24T13:06:11.366Z,25.04
2022-08-24T13:08:43.603Z,24.47
2022-08-24T13:11:26.884Z,24.19
2022-08-24T13:13:54.403Z,24.24
2022-08-24T13:16:45.669Z,24.22
2022-08-24T13:19:39.694Z,24.53
2022-08-24T13:22:10.129Z,24.73
2022-08-24T13:24:43.932Z,25.17
2022-08-24T13:27:11.284Z,25.61
2022-08-24T13:29:45.562Z,25.09
2022-08-24T13:32:22.150Z,24.88
2022-08-24T13:34:51.801Z,24.39
2022-08-24T13:37:29.062Z,24.07
2022-08-24T13:40:25.241Z,24.09
2022-08-24T13:43:13.809Z,24.07
2022-08-24T13:45:57.628Z,24.02
2022-08-24T13:48:32.946Z,24.02
2022-08-24T13:51:21.122Z,24.11
2022-08-24T13:54:20.542Z,24.13
2022-08-24T13:57:19.691Z,23.94
2022-08-24T14:00:01.975Z,23.77
2022-08-24T14:02:50.573Z,23.79
2022-08-24T14:05:37.159Z,23.88
2022-08-24T14:08:32.553Z,23.94
2022-08-24T14:11:09.002Z,23.80
2022-08-24T14:14:06.632Z,23.79
2022-08-24T14:17:42.032Z,23.88
2022-08-24T14:20:15.411Z,23.97
2022-08-24T14:23:12.703Z,23.89
2022-08-24T14:25:41.148Z,23.78
2022-08-24T14:28:33.183Z,23.76
2022-08-24T14:31:20.071Z,23.88
2022-08-24T14:34:08.332Z,24.25
2022-08-24T14:36:47.842Z,24.23
2022-08-24T14:39:54.685Z,24.33
2022-08-24T14:42:39.019Z,24.42
2022-08-24T14:45:14.377Z,24.60
2022-08-24T14:48:00.166Z,25.00
2022-08-24T14:50:45.051Z,24.94
2022-08-24T14:53:27.962Z,25.30
2022-08-24T14:56:01.088Z,25.56
2022-08-24T14:58:47.652Z,25.14
2022-08-24T15:01:15.203Z,24.59
2022-08-24T15:03:51.929Z,24.23
2022-08-24T15:06:48.471Z,24.07
2022-08-24T15:09:35.780Z,23.79
2022-08-24T15:12:36.073Z,23.70
2022-08-24T15:15:34.225Z,23.49
2022-08-24T15:18:01.949Z,23.37
2022-08-24T15:20:58.831Z,23.36
2022-08-24T15:23:49.623Z,23.27
2022-08-24T15:26:52.337Z,23.17
2022-08-24T15:29:23.841Z,23.14
2022-08-24T15:32:07.940Z,23.08
2022-08-24T15:34:41.851Z,22.95
2022-08-24T15:37:10.182Z,22.83
2022-08-24T15:39:37.826Z,22.80
2022-08-24T15:42:13.651Z,22.83
2022-08-24T15:44:45.330Z,22.82
2022-08-24T15:47:22.363Z,22.97
2022-08-24T15:50:01.959Z,23.05
2022-08-24T15:53:06.007Z,23.26
2022-08-24T15:55:38.850Z,23.39
2022-08-24T15:58:15.491Z,23.46
2022-08-24T16:01:01.504Z,23.48
2022-08-24T16:03:46.951Z,23.64
2022-08-24T16:06:45.412Z,23.67
2022-08-24T16:09:18.862Z,23.67
2022-08-24T16:12:02.341Z,23.71
2022-08-24T16:14:34.997Z,23.70
2022-08-24T16:17:18.832Z,23.78
2022-08-24T16:19:53.098Z,23.93
2022-08-24T16:23:00.174Z,24.02
2022-08-24T16:25:43.657Z,23.95
2022-08-24T16:28:36.571Z,23.89
2022-08-24T16:31:07.392Z,23.88
2022-08-24T16:33:46.969Z,23.94
2022-08-24T16:36:18.206Z,23.86
2022-08-24T16:38:49.332Z,23.85
2022-08-24T16:41:21.497Z,23.81
2022-08-24T16:43:49.464Z,23.81
2022-08-24T16:46:22.800Z,23.66
2022-08-24T16:48:50.917Z,23.42
2022-08-24T16:51:18.399Z,23.28
2022-08-24T16:53:45.928Z,23.15
2022-08-24T16:56:16.711Z,23.11
2022-08-24T16:58:47.857Z,23.12
2022-08-24T17:01:16.479Z,23.02
2022-08-24T17:03:44.180Z,22.89
2022-08-24T17:06:12.772Z,22.79
2022-08-24T17:08:40.950Z,22.70
2022-08-24T17:11:08.700Z,22.65
2022-08-24T17:13:49.260Z,22.53
2022-08-24T17:16:19.981Z,22.43
2022-08-24T17:18:47.836Z,22.34
2022-08-24T17:21:15.679Z,22.27
2022-08-24T17:23:43.572Z,22.19
2022-08-24T17:26:20.735Z,22.19
2022-08-24T17:28:52.733Z,22.12
2022-08-24T17:31:20.334Z,22.13
2022-08-24T17:33:47.866Z,22.09
2022-08-24T17:36:16.965Z,22.05
2022-08-24T17:38:52.978Z,21.94
2022-08-24T17:41:24.876Z,21.93
2022-08-24T17:43:53.009Z,21.89
2022-08-24T17:46:20.651Z,21.89
2022-08-24T17:48:48.426Z,21.88
2022-08-24T17:51:16.751Z,21.87
2022-08-24T17:53:44.461Z,21.87
2022-08-24T17:56:15.478Z,21.85
2022-08-24T17:59:03.220Z,21.91
2022-08-24T18:01:31.718Z,21.88
2022-08-24T18:03:59.493Z,21.83
2022-08-24T18:06:28.927Z,21.74
2022-08-24T18:08:58.450Z,21.73
2022-08-24T18:11:26.458Z,21.61
2022-08-24T18:13:54.806Z,21.56
2022-08-24T18:16:25.179Z,21.46
2022-08-24T18:18:54.129Z,21.42
2022-08-24T18:21:22.958Z,21.40
2022-08-24T18:23:51.476Z,21.37
2022-08-24T18:26:29.260Z,21.35
2022-08-24T18:29:02.032Z,21.38
2022-08-24T18:31:30.860Z,21.40
2022-08-24T18:33:58.409Z,21.37
2022-08-24T18:36:25.889Z,21.30
2022-08-24T18:38:53.650Z,21.27
2022-08-24T18:41:21.539Z,21.24
2022-08-24T18:43:49.098Z,21.22
2022-08-24T18:46:16.758Z,21.16
2022-08-24T18:48:44.428Z,21.18
2022-08-24T18:51:19.005Z,21.13
2022-08-24T18:53:48.661Z,21.15
2022-08-24T18:56:16.698Z,21.17
2022-08-24T18:58:44.307Z,21.27
2022-08-24T19:01:12.696Z,21.26
2022-08-24T19:03:43.204Z,21.31
2022-08-24T19:06:11.015Z,21.27
2022-08-24T19:08:38.699Z,21.20
2022-08-24T19:11:07.539Z,21.18
2022-08-24T19:13:35.328Z,21.15
2022-08-24T19:16:03.298Z,21.14
2022-08-24T19:18:31.258Z,21.16
2022-08-24T19:21:00.298Z,21.13
2022-08-24T19:23:32.978Z,21.07
2022-08-24T19:26:02.378Z,21.02
2022-08-24T19:28:30.400Z,20.96
2022-08-24T19:31:01.809Z,20.88
2022-08-24T19:33:34.894Z,20.78
2022-08-24T19:36:03.018Z,20.76
2022-08-24T19:38:30.714Z,20.72
2022-08-24T19:40:59.715Z,20.70
2022-08-24T19:43:29.009Z,20.68
2022-08-24T19:46:06.412Z,20.61
2022-08-24T19:48:37.593Z,20.57
2022-08-24T19:51:08.844Z,20.58
2022-08-24T19:53:37.904Z,20.57
2022-08-24T19:56:07.138Z,20.58
2022-08-24T19:58:46.976Z,20.57
2022-08-24T20:01:23.972Z,20.57
2022-08-24T20:03:52.318Z,20.50
2022-08-24T20:06:21.669Z,20.47
2022-08-24T20:08:50.129Z,20.36
2022-08-24T20:11:19.414Z,20.33
2022-08-24T20:13:50.202Z,20.23
2022-08-24T20:16:20.250Z,20.19
2022-08-24T20:18:48.295Z,20.14
2022-08-24T20:21:16.324Z,20.13
2022-08-24T20:23:45.614Z,20.10
2022-08-24T20:26:13.866Z,20.18
2022-08-24T20:28:46.327Z,20.15
2022-08-24T20:31:15.151Z,20.04
2022-08-24T20:33:43.074Z,20.03
2022-08-24T20:36:26.998Z,19.96
2022-08-24T20:38:57.849Z,19.94
2022-08-24T20:41:27.607Z,19.97
2022-08-24T20:43:56.769Z,20.02
2022-08-24T20:46:26.858Z,20.02
2022-08-24T20:48:56.968Z,20.00
2022-08-24T20:51:25.774Z,19.97
2022-08-24T20:53:53.648Z,19.91
2022-08-24T20:56:39.276Z,19.84
2022-08-24T20:59:09.975Z,19.81
2022-08-24T21:01:40.830Z,19.76
2022-08-24T21:04:09.550Z,19.77
2022-08-24T21:06:39.478Z,19.69
2022-08-24T21:09:13.994Z,19.65
2022-08-24T21:11:43.412Z,19.63
2022-08-24T21:14:11.044Z,19.59
2022-08-24T21:16:41.763Z,19.58
2022-08-24T21:19:12.024Z,19.56
2022-08-24T21:21:42.239Z,19.53
2022-08-24T21:24:10.767Z,19.49
2022-08-24T21:26:39.138Z,19.55
2022-08-24T21:29:08.579Z,19.49
2022-08-24T21:31:36.708Z,19.55
2022-08-24T21:34:23.183Z,19.54
2022-08-24T21:36:52.807Z,19.50
2022-08-24T21:39:21.981Z,19.46
2022-08-24T21:41:49.376Z,19.41
2022-08-24T21:44:17.197Z,19.36
2022-08-24T21:46:44.761Z,19.34
2022-08-24T21:49:12.537Z,19.37
2022-08-24T21:51:40.417Z,19.30
2022-08-24T21:54:08.308Z,19.39
2022-08-24T21:56:35.941Z,19.37
2022-08-24T21:59:03.886Z,19.28
2022-08-24T22:01:31.802Z,19.18
2022-08-24T22:03:59.678Z,19.16
2022-08-24T22:06:31.306Z,19.19
2022-08-24T22:09:00.567Z,19.16
2022-08-24T22:11:29.031Z,19.11
2022-08-24T22:13:56.966Z,19.03
2022-08-24T22:16:25.232Z,19.03
2022-08-24T22:18:53.283Z,19.01
2022-08-24T22:21:24.157Z,18.94
2022-08-24T22:23:51.697Z,18.96
2022-08-24T22:26:19.347Z,18.97
2022-08-24T22:28:47.118Z,18.95
2022-08-24T22:31:24.463Z,18.91
2022-08-24T22:33:52.129Z,18.89
2022-08-24T22:36:19.652Z,18.85
2022-08-24T22:38:48.186Z,18.81
2022-08-24T22:41:16.492Z,18.80
2022-08-24T22:44:02.826Z,18.78
2022-08-24T22:46:30.499Z,18.75
2022-08-24T22:48:59.235Z,18.77
2022-08-24T22:51:26.857Z,18.76
2022-08-24T22:53:54.363Z,18.74
2022-08-24T22:56:25.545Z,18.72
2022-08-24T22:58:53.635Z,18.69
2022-08-24T23:01:24.787Z,18.66
2022-08-24T23:03:55.255Z,18.63
2022-08-24T23:06:24.041Z,18.60
2022-08-24T23:08:52.097Z,18.59
2022-08-24T23:11:24.727Z,18.58
2022-08-24T23:13:52.913Z,18.56
2022-08-24T23:16:20.719Z,18.56
2022-08-24T23:19:06.871Z,18.54
2022-08-24T23:21:34.580Z,18.52
2022-08-24T23:24:02.417Z,18.52
2022-08-24T23:26:32.720Z,18.51
2022-08-24T23:29:01.035Z,18.49
2022-08-24T23:31:28.500Z,18.48
2022-08-24T23:33:56.761Z,18.45
2022-08-24T23:36:26.969Z,18.43
2022-08-24T23:38:56.751Z,18.40
2022-08-24T23:41:31.701Z,18.39
2022-08-24T23:44:05.680Z,18.37
2022-08-24T23:46:33.799Z,18.35
2022-08-24T23:49:03.383Z,18.33
2022-08-24T23:51:31.495Z,18.32
2022-08-24T23:53:59.231Z,18.31
2022-08-24T23:56:31.592Z,18.32
2022-08-24T23:59:02.131Z,18.32
